Time;durP1;ratioP1;P1;durP2;ratioP2;P2;SDS_P1;SDS_P2;PMS_P1;PMS_P2;Temp;Humidity;BMP_temperature;BMP_pressure;BME280_temperature;BME280_humidity;BME280_pressure;Samples;Min_cycle;Max_cycle;Signal;HPM_P1;HPM_P2
2023/11/19 00:00:11;;;;;;;32.40;4.28;;;;;;;17.28;78.13;100825.47;4975560;28;20084;-78
2023/11/19 00:02:41;;;;;;;33.97;4.20;;;;;;;17.08;79.18;100819.63;4977571;28;20108;-78
2023/11/19 00:05:11;;;;;;;31.48;4.53;;;;;;;16.92;79.80;100827.72;4992952;28;20466;-79
2023/11/19 00:07:37;;;;;;;25.15;3.97;;;;;;;17.06;79.21;100826.69;4993735;28;20484;-79
2023/11/19 00:10:06;;;;;;;27.58;4.20;;;;;;;17.05;79.82;100836.34;4992411;28;20046;-77
2023/11/19 00:12:39;;;;;;;30.55;4.47;;;;;;;16.79;80.18;100848.97;4994159;28;20042;-78
2023/11/19 00:15:06;;;;;;;30.23;4.55;;;;;;;16.97;79.98;100846.09;4994125;28;20566;-78
2023/11/19 00:17:34;;;;;;;31.58;5.20;;;;;;;17.14;79.38;100838.81;4996931;28;20572;-77
2023/11/19 00:20:00;;;;;;;34.15;4.80;;;;;;;17.03;79.21;100843.38;4996276;28;20042;-78
2023/11/19 00:22:25;;;;;;;30.92;4.70;;;;;;;16.96;80.34;100832.06;5000866;28;20114;-77
2023/11/19 00:24:57;;;;;;;39.97;5.03;;;;;;;17.11;78.99;100824.84;4995160;28;20066;-77
2023/11/19 00:27:23;;;;;;;30.95;4.53;;;;;;;16.82;79.65;100822.63;4993933;28;20203;-79
2023/11/19 00:29:49;;;;;;;34.63;4.55;;;;;;;17.14;79.16;100819.56;4993732;28;20451;-78
2023/11/19 00:32:20;;;;;;;37.25;4.65;;;;;;;16.95;79.20;100825.06;4992505;28;20097;-78
2023/11/19 00:34:47;;;;;;;29.77;4.57;;;;;;;16.83;79.53;100833.09;4993512;28;20490;-78
2023/11/19 00:37:13;;;;;;;38.83;5.25;;;;;;;16.73;79.67;100831.47;4994179;28;20038;-78
2023/11/19 00:39:38;;;;;;;31.45;4.35;;;;;;;17.08;79.17;100819.63;4994075;28;20070;-79
2023/11/19 00:42:10;;;;;;;37.53;4.75;;;;;;;17.04;78.99;100822.28;4993554;28;20046;-78
2023/11/19 00:44:35;;;;;;;37.38;5.07;;;;;;;16.84;79.21;100821.69;4993539;28;20037;-79
2023/11/19 00:47:01;;;;;;;32.17;4.30;;;;;;;16.71;80.04;100816.63;4993264;28;20403;-79
2023/11/19 00:49:32;;;;;;;30.60;4.47;;;;;;;17.12;77.59;100819.56;4994637;28;20038;-79
2023/11/19 00:52:02;;;;;;;37.22;4.97;;;;;;;16.80;78.77;100814.72;4994711;28;20050;-78
2023/11/19 00:54:30;;;;;;;29.13;4.88;;;;;;;16.80;78.43;100808.59;4976881;28;20041;-77
2023/11/19 00:56:58;;;;;;;37.35;5.22;;;;;;;16.75;79.15;100810.41;4992489;28;20030;-77
2023/11/19 00:59:28;;;;;;;37.50;4.10;;;;;;;17.16;77.25;100812.47;4993450;28;20102;-77
2023/11/19 01:01:54;;;;;;;39.13;4.70;;;;;;;17.00;77.20;100802.16;4994342;28;20121;-78
2023/11/19 01:04:19;;;;;;;29.35;4.47;;;;;;;17.29;76.57;100801.72;4976266;28;20118;-78
2023/11/19 01:06:44;;;;;;;36.50;4.65;;;;;;;17.00;77.34;100802.16;4993235;28;20041;-78
2023/11/19 01:09:10;;;;;;;31.80;4.88;;;;;;;16.73;77.89;100794.63;4992565;28;20073;-78
2023/11/19 01:11:35;;;;;;;37.55;5.32;;;;;;;16.70;78.63;100793.81;4992650;28;20049;-77
2023/11/19 01:14:10;;;;;;;33.85;4.95;;;;;;;16.99;76.21;100794.28;4991566;28;20054;-77
2023/11/19 01:16:35;;;;;;;33.65;4.68;;;;;;;16.84;76.39;100800.63;4992440;28;20518;-79
2023/11/19 01:19:04;;;;;;;38.58;5.15;;;;;;;16.60;77.32;100796.53;4992469;28;20070;-79
2023/11/19 01:21:29;;;;;;;35.67;4.82;;;;;;;16.56;77.29;100789.56;4975742;28;20035;-78
2023/11/19 01:23:55;;;;;;;41.03;5.13;;;;;;;16.58;77.01;100795.69;4975588;28;20342;-78
2023/11/19 01:26:20;;;;;;;24.42;4.32;;;;;;;16.75;76.07;100795.50;4992318;28;20112;-79
2023/11/19 01:28:46;;;;;;;41.78;4.70;;;;;;;16.89;74.59;100796.19;4993085;28;20039;-79
2023/11/19 01:31:15;;;;;;;38.53;5.20;;;;;;;16.72;76.22;100795.50;4993406;28;20399;-77
2023/11/19 01:33:43;;;;;;;38.75;5.40;;;;;;;16.41;76.94;100808.13;4993777;28;20251;-78
2023/11/19 01:36:09;;;;;;;26.40;4.15;;;;;;;16.78;75.63;100803.34;4991303;28;20034;-79
2023/11/19 01:38:36;;;;;;;34.17;5.00;;;;;;;16.40;76.58;100797.66;4991462;28;20093;-79
2023/11/19 01:41:03;;;;;;;33.92;4.68;;;;;;;16.69;75.10;100799.97;4992777;28;20121;-77
2023/11/19 01:43:41;;;;;;;36.13;5.55;;;;;;;16.28;76.70;100808.31;4995250;28;20086;-77
2023/11/19 01:46:09;;;;;;;34.22;4.45;;;;;;;16.54;75.44;100799.22;4995685;28;20124;-77
2023/11/19 01:48:40;;;;;;;34.63;4.88;;;;;;;16.14;77.44;100801.44;4997131;28;20030;-77
2023/11/19 01:51:06;;;;;;;38.78;5.35;;;;;;;16.11;76.40;100795.31;4992852;28;20088;-79
2023/11/19 01:53:40;;;;;;;40.13;5.63;;;;;;;16.38;75.54;100794.16;4993058;28;20022;-79
2023/11/19 01:56:10;;;;;;;31.52;5.03;;;;;;;16.06;77.29;100791.88;4992991;28;20046;-77
2023/11/19 01:58:36;;;;;;;41.28;5.80;;;;;;;16.30;75.77;100788.97;4991971;28;20035;-78
2023/11/19 02:01:04;;;;;;;37.85;5.18;;;;;;;16.30;75.20;100796.00;4974236;28;20038;-77
2023/11/19 02:03:32;;;;;;;31.60;4.55;;;;;;;16.50;74.24;100805.41;4974954;28;20034;-78
2023/11/19 02:06:01;;;;;;;33.45;5.63;;;;;;;16.07;75.91;100815.53;4991640;28;20100;-78
2023/11/19 02:08:26;;;;;;;39.90;5.38;;;;;;;16.21;75.27;100816.28;4992140;28;20049;-78
2023/11/19 02:10:57;;;;;;;35.20;5.30;;;;;;;16.34;74.76;100834.56;4993109;28;20136;-77
2023/11/19 02:13:29;;;;;;;34.53;5.43;;;;;;;16.33;74.84;100835.44;4976437;28;20038;-77
2023/11/19 02:15:59;;;;;;;45.47;5.78;;;;;;;16.06;75.32;100819.06;4995539;28;20415;-78
2023/11/19 02:18:29;;;;;;;46.53;5.85;;;;;;;16.19;75.46;100815.41;4974338;28;20038;-78
2023/11/19 02:20:59;;;;;;;38.50;5.25;;;;;;;16.29;74.75;100818.81;4991529;28;20141;-78
2023/11/19 02:23:26;;;;;;;42.25;5.60;;;;;;;16.00;75.65;100805.09;4990959;28;20038;-77
2023/11/19 02:26:01;;;;;;;33.70;5.57;;;;;;;16.20;73.49;100811.91;4992210;28;20118;-78
2023/11/19 02:28:27;;;;;;;40.00;5.88;;;;;;;15.98;75.55;100806.88;4990760;28;20037;-77
2023/11/19 02:30:53;;;;;;;39.67;5.38;;;;;;;16.23;73.91;100809.22;4974830;28;20046;-78
2023/11/19 02:33:18;;;;;;;37.38;5.75;;;;;;;15.98;75.28;100804.25;4993506;28;20491;-79
2023/11/19 02:35:44;;;;;;;40.45;4.93;;;;;;;15.65;76.78;100800.16;4991678;28;20045;-78
2023/11/19 02:38:18;;;;;;;37.25;5.00;;;;;;;15.86;74.97;100794.69;4973791;28;20043;-79
2023/11/19 02:40:53;;;;;;;38.95;4.85;;;;;;;16.33;73.91;100796.84;4993364;28;20104;-78
2023/11/19 02:43:28;;;;;;;41.75;5.18;;;;;;;15.81;75.10;100815.78;4995272;28;20037;-77
2023/11/19 02:45:55;;;;;;;39.28;5.28;;;;;;;15.96;74.79;100800.75;4992691;28;20042;-79
2023/11/19 02:48:21;;;;;;;37.90;5.13;;;;;;;15.94;74.31;100807.78;4990765;28;20104;-79
2023/11/19 02:50:47;;;;;;;41.85;4.82;;;;;;;15.87;75.41;100790.31;4973253;28;20038;-79
2023/11/19 02:53:16;;;;;;;35.10;5.90;;;;;;;15.97;73.93;100790.22;4990745;28;20518;-79
2023/11/19 02:55:48;;;;;;;35.75;5.30;;;;;;;16.10;73.47;100804.13;4990814;28;20035;-78
2023/11/19 02:58:23;;;;;;;44.72;5.18;;;;;;;15.96;74.02;100812.16;4993253;28;20072;-78
2023/11/19 03:00:59;;;;;;;44.33;5.80;;;;;;;16.08;73.19;100805.91;4990875;28;20038;-77
2023/11/19 03:03:38;;;;;;;47.60;6.45;;;;;;;15.90;74.86;100804.31;4973416;28;20488;-77
2023/11/19 03:06:09;;;;;;;39.35;6.00;;;;;;;15.80;74.96;100790.38;4989822;28;20038;-77
2023/11/19 03:08:37;;;;;;;44.00;5.00;;;;;;;15.79;74.91;100791.28;4990988;28;20049;-77
2023/11/19 03:11:04;;;;;;;46.58;5.70;;;;;;;15.77;74.31;100797.44;4990362;28;20030;-77
2023/11/19 03:13:33;;;;;;;35.88;5.18;;;;;;;15.86;73.85;100797.31;4991496;28;20038;-77
2023/11/19 03:16:01;;;;;;;44.28;5.80;;;;;;;15.76;74.40;100793.06;4994057;28;20035;-78
2023/11/19 03:18:28;;;;;;;40.58;5.40;;;;;;;15.88;73.73;100786.81;4993550;28;20039;-77
2023/11/19 03:20:53;;;;;;;45.63;5.53;;;;;;;15.86;73.66;100776.28;4992787;28;20069;-79
2023/11/19 03:23:19;;;;;;;40.75;5.18;;;;;;;15.66;74.88;100776.50;4996271;28;20039;-77
2023/11/19 03:25:50;;;;;;;40.80;4.97;;;;;;;15.71;74.22;100763.31;4978960;28;20039;-77
2023/11/19 03:28:18;;;;;;;39.90;4.88;;;;;;;15.50;74.74;100766.97;4977761;28;20109;-77
2023/11/19 03:30:44;;;;;;;44.67;5.60;;;;;;;15.39;75.28;100768.81;4980150;28;20057;-77
2023/11/19 03:33:12;;;;;;;38.28;5.28;;;;;;;15.95;72.93;100773.59;5000105;28;20034;-77
2023/11/19 03:35:37;;;;;;;37.83;5.47;;;;;;;15.55;74.31;100785.38;4986015;28;20034;-77
2023/11/19 03:38:05;;;;;;;43.05;4.97;;;;;;;15.47;74.96;100790.66;4995544;28;20512;-77
2023/11/19 03:40:33;;;;;;;39.28;5.47;;;;;;;15.34;75.03;100794.25;4994536;28;20034;-77
2023/11/19 03:42:59;;;;;;;47.47;5.55;;;;;;;15.65;73.98;100793.16;4976502;28;20129;-79
2023/11/19 03:45:27;;;;;;;40.88;5.22;;;;;;;15.85;72.81;100795.63;4994187;28;20495;-79
2023/11/19 03:47:52;;;;;;;38.97;5.22;;;;;;;15.86;72.79;100797.31;4976489;28;20038;-79
2023/11/19 03:50:19;;;;;;;41.20;5.35;;;;;;;15.53;73.50;100795.88;4976584;28;20062;-79
2023/11/19 03:52:48;;;;;;;44.85;6.22;;;;;;;15.43;74.12;100791.53;4978661;28;20030;-79
2023/11/19 03:55:13;;;;;;;42.35;5.30;;;;;;;15.52;74.13;100791.50;4995145;28;20185;-79
2023/11/19 03:57:45;;;;;;;41.60;5.63;;;;;;;15.44;74.28;100798.53;4994786;28;20050;-79
2023/11/19 04:00:16;;;;;;;47.38;6.50;;;;;;;15.58;73.75;100806.34;4993467;28;20045;-78
2023/11/19 04:02:42;;;;;;;40.63;4.88;;;;;;;15.90;72.05;100803.44;4996585;28;20037;-77
2023/11/19 04:05:07;;;;;;;38.05;4.53;;;;;;;15.85;72.21;100805.25;4993828;28;20450;-77
2023/11/19 04:07:36;;;;;;;43.78;5.65;;;;;;;15.49;73.79;100803.78;4995825;28;20038;-78
2023/11/19 04:10:07;;;;;;;41.20;5.60;;;;;;;15.15;74.85;100811.00;4993860;28;20375;-77
2023/11/19 04:12:39;;;;;;;40.70;5.45;;;;;;;15.53;73.10;100814.28;4998668;28;20034;-78
2023/11/19 04:15:11;;;;;;;48.47;6.00;;;;;;;15.83;72.27;100810.50;4995907;28;20095;-79
2023/11/19 04:17:39;;;;;;;39.83;5.32;;;;;;;15.55;73.57;100814.28;4995436;28;20066;-78
2023/11/19 04:20:06;;;;;;;40.83;5.18;;;;;;;15.63;73.47;100794.91;4992965;28;20046;-78
2023/11/19 04:22:43;;;;;;;34.30;5.07;;;;;;;15.59;73.04;100798.47;4975711;28;20573;-78
2023/11/19 04:25:09;;;;;;;38.97;5.10;;;;;;;15.51;73.43;100794.97;4994081;28;20033;-77
2023/11/19 04:27:47;;;;;;;38.42;5.18;;;;;;;15.61;72.39;100801.09;4995289;28;20031;-77
2023/11/19 04:30:13;;;;;;;43.50;5.40;;;;;;;15.58;71.75;100804.59;4994424;28;20034;-77
2023/11/19 04:32:39;;;;;;;41.35;5.30;;;;;;;15.58;70.91;100823.00;4994670;28;20373;-77
2023/11/19 04:35:10;;;;;;;36.65;5.15;;;;;;;15.32;71.84;100804.75;4993788;28;20491;-77
2023/11/19 04:37:42;;;;;;;41.13;5.07;;;;;;;15.53;70.86;100811.66;4992886;28;20035;-79
2023/11/19 04:40:11;;;;;;;39.30;4.95;;;;;;;15.49;70.73;100809.88;4990567;28;20136;-77
2023/11/19 04:42:42;;;;;;;32.90;4.82;;;;;;;15.60;69.70;100804.59;4992384;28;20054;-77
2023/11/19 04:45:10;;;;;;;33.03;4.40;;;;;;;15.66;69.42;100801.91;4991439;28;20062;-77
2023/11/19 04:47:36;;;;;;;31.75;4.75;;;;;;;15.42;70.03;100800.31;4992340;28;20039;-77
2023/11/19 04:50:03;;;;;;;33.50;4.75;;;;;;;15.81;68.76;100813.16;4991176;28;20121;-76
2023/11/19 04:52:45;;;;;;;43.15;5.07;;;;;;;15.47;69.66;100798.53;4992733;28;20526;-77
2023/11/19 04:55:11;;;;;;;37.83;4.60;;;;;;;15.39;69.78;100816.09;4991361;28;20519;-77
2023/11/19 04:57:40;;;;;;;37.20;4.15;;;;;;;15.48;68.96;100825.69;4991441;28;20049;-78
2023/11/19 05:00:07;;;;;;;33.90;4.63;;;;;;;15.56;68.52;100821.25;4991944;28;20039;-77
2023/11/19 05:02:33;;;;;;;27.40;3.70;;;;;;;15.73;67.98;100808.88;4992892;28;20041;-78
2023/11/19 05:04:58;;;;;;;34.75;4.90;;;;;;;15.79;67.30;100814.06;4991241;28;20030;-78
2023/11/19 05:07:23;;;;;;;33.38;4.68;;;;;;;15.69;67.63;100810.63;4993256;28;20382;-78
2023/11/19 05:09:49;;;;;;;36.42;4.63;;;;;;;15.56;67.71;100814.25;4992620;28;20030;-78
2023/11/19 05:12:17;;;;;;;36.00;4.18;;;;;;;15.60;67.87;100812.47;4982925;28;20100;-78
2023/11/19 05:14:49;;;;;;;30.35;4.50;;;;;;;15.23;68.73;100823.22;4991889;28;20041;-77
2023/11/19 05:17:14;;;;;;;38.00;4.63;;;;;;;15.35;68.81;100817.88;4991872;28;20420;-77
2023/11/19 05:19:47;;;;;;;30.10;4.30;;;;;;;15.40;69.14;100809.97;4992093;28;20050;-77
2023/11/19 05:22:20;;;;;;;36.70;5.30;;;;;;;15.35;68.56;100812.63;4974683;28;20038;-78
2023/11/19 05:24:51;;;;;;;33.83;4.75;;;;;;;15.39;69.13;100806.47;4993916;28;20038;-78
2023/11/19 05:27:20;;;;;;;37.60;4.72;;;;;;;15.10;70.10;100803.16;4993091;28;20053;-79
2023/11/19 05:29:45;;;;;;;42.40;5.05;;;;;;;15.36;69.57;100808.25;4993556;28;20117;-78
2023/11/19 05:32:13;;;;;;;35.05;4.40;;;;;;;15.51;68.78;100816.00;4993172;28;20062;-79
2023/11/19 05:34:38;;;;;;;43.78;4.75;;;;;;;15.64;68.45;100817.69;4991936;28;20073;-78
2023/11/19 05:37:05;;;;;;;35.42;4.65;;;;;;;15.30;69.65;100830.19;4992615;28;20034;-78
2023/11/19 05:39:45;;;;;;;38.70;4.93;;;;;;;15.54;68.79;100825.66;4992668;28;20037;-78
2023/11/19 05:42:23;;;;;;;36.88;4.70;;;;;;;15.40;68.83;100823.09;4975701;28;20496;-78
2023/11/19 05:44:51;;;;;;;36.97;5.07;;;;;;;15.56;68.06;100826.50;4993019;28;20038;-78
2023/11/19 05:47:20;;;;;;;36.10;5.07;;;;;;;15.62;68.08;100822.06;4995363;28;20681;-78
2023/11/19 05:49:45;;;;;;;35.47;4.43;;;;;;;15.79;67.13;100821.94;4998467;28;20034;-78
2023/11/19 05:52:13;;;;;;;33.90;4.70;;;;;;;15.40;68.44;100828.34;4986903;28;20042;-78
2023/11/19 05:54:51;;;;;;;38.95;4.40;;;;;;;15.55;67.64;100832.66;4992015;28;20034;-79
2023/11/19 05:57:22;;;;;;;34.85;4.30;;;;;;;15.49;68.04;100823.00;5006954;28;20030;-78
2023/11/19 05:59:53;;;;;;;38.75;4.43;;;;;;;15.57;67.59;100823.00;5009664;28;20092;-77
2023/11/19 06:02:22;;;;;;;33.78;4.53;;;;;;;15.42;68.33;100808.19;5009370;28;20137;-77
2023/11/19 06:04:47;;;;;;;34.63;4.47;;;;;;;15.19;68.83;100802.22;5008412;28;20038;-78
2023/11/19 06:07:15;;;;;;;31.15;4.38;;;;;;;15.54;67.86;100802.00;5011049;28;20061;-77
2023/11/19 06:09:40;;;;;;;36.47;4.93;;;;;;;15.41;67.79;100812.59;5013321;28;20045;-77
2023/11/19 06:12:08;;;;;;;34.30;4.32;;;;;;;15.21;68.52;100819.72;5011706;28;20039;-76
2023/11/19 06:14:33;;;;;;;32.60;4.20;;;;;;;15.53;67.67;100809.03;4989048;28;20042;-77
2023/11/19 06:16:59;;;;;;;36.78;4.18;;;;;;;15.20;68.27;100811.84;5011300;28;20048;-78
2023/11/19 06:19:25;;;;;;;28.95;4.40;;;;;;;15.34;68.29;100804.75;5012085;28;20062;-78
2023/11/19 06:21:50;;;;;;;34.00;5.15;;;;;;;15.19;68.98;100810.09;5011632;28;20046;-78
2023/11/19 06:24:22;;;;;;;34.08;4.57;;;;;;;15.53;67.76;100816.03;5001866;28;20522;-78
2023/11/19 06:26:47;;;;;;;32.38;4.78;;;;;;;15.51;67.95;100823.00;4992717;28;20108;-77
2023/11/19 06:29:18;;;;;;;36.33;4.28;;;;;;;15.21;69.13;100824.97;4991586;28;20432;-76
2023/11/19 06:31:52;;;;;;;31.13;4.25;;;;;;;15.66;67.76;100822.94;4992381;28;20035;-79
2023/11/19 06:34:21;;;;;;;38.53;5.15;;;;;;;15.15;69.59;100839.88;4991951;28;20118;-79
2023/11/19 06:36:52;;;;;;;39.00;4.35;;;;;;;15.19;69.13;100836.34;4991829;28;20041;-79
2023/11/19 06:39:21;;;;;;;33.40;4.30;;;;;;;15.54;68.47;100836.16;4991677;28;20034;-79
2023/11/19 06:41:47;;;;;;;37.25;4.45;;;;;;;15.58;68.26;100837.88;4992006;28;20396;-79
2023/11/19 06:44:13;;;;;;;42.20;5.07;;;;;;;15.91;67.12;100845.50;4973938;28;20494;-79
2023/11/19 06:46:39;;;;;;;36.60;3.67;;;;;;;15.70;67.58;100851.81;4974638;28;20117;-78
2023/11/19 06:49:04;;;;;;;41.13;4.82;;;;;;;15.46;68.21;100848.44;4972750;28;20069;-77
2023/11/19 06:51:33;;;;;;;32.45;4.30;;;;;;;15.67;68.07;100846.59;4991275;28;20054;-78
2023/11/19 06:53:59;;;;;;;34.13;4.50;;;;;;;15.89;67.73;100856.91;4990738;28;20111;-78
2023/11/19 06:56:25;;;;;;;34.92;4.25;;;;;;;15.49;68.63;100861.56;4977488;28;20093;-78
2023/11/19 06:58:51;;;;;;;32.13;4.50;;;;;;;15.93;66.87;100859.50;4994364;28;20114;-78
2023/11/19 07:01:20;;;;;;;34.58;4.20;;;;;;;15.63;67.92;100850.09;4994256;28;20034;-78
2023/11/19 07:03:46;;;;;;;42.17;4.75;;;;;;;15.82;67.05;100843.81;4995092;28;20081;-77
2023/11/19 07:06:12;;;;;;;36.25;4.43;;;;;;;15.65;67.52;100853.59;4994991;28;20034;-77
2023/11/19 07:08:38;;;;;;;35.97;4.80;;;;;;;15.53;68.51;100853.69;4994443;28;20121;-77
2023/11/19 07:11:04;;;;;;;33.08;4.47;;;;;;;15.88;67.54;100852.53;4993902;28;20121;-77
2023/11/19 07:13:32;;;;;;;44.03;4.60;;;;;;;15.82;67.60;100849.06;4994507;28;20468;-77
2023/11/19 07:16:00;;;;;;;36.20;4.97;;;;;;;15.90;67.59;100859.53;4994404;28;20030;-79
2023/11/19 07:18:28;;;;;;;35.28;4.63;;;;;;;15.79;67.89;100857.00;4994620;28;20034;-78
2023/11/19 07:20:54;;;;;;;36.95;4.57;;;;;;;15.81;67.62;100856.97;4992786;28;20038;-77
2023/11/19 07:23:19;;;;;;;42.80;4.68;;;;;;;15.50;68.86;100844.91;4976903;28;20130;-77
2023/11/19 07:25:50;;;;;;;38.33;4.53;;;;;;;15.87;67.82;100843.78;4984188;28;20101;-77
2023/11/19 07:28:16;;;;;;;30.98;4.45;;;;;;;16.05;67.27;100840.97;4992938;28;21081;-77
2023/11/19 07:30:42;;;;;;;34.92;4.35;;;;;;;15.86;67.85;100838.53;4993787;28;20038;-77
2023/11/19 07:33:08;;;;;;;36.50;5.10;;;;;;;15.87;67.88;100838.50;4993404;28;20045;-78
2023/11/19 07:35:36;;;;;;;37.28;4.60;;;;;;;15.59;69.05;100856.28;4994331;28;20037;-78
2023/11/19 07:38:02;;;;;;;37.88;4.90;;;;;;;15.56;68.81;100850.16;4977324;28;20042;-78
2023/11/19 07:40:27;;;;;;;37.20;4.85;;;;;;;15.82;68.00;100859.59;4994870;28;20458;-79
2023/11/19 07:42:53;;;;;;;37.10;4.82;;;;;;;16.04;67.29;100857.63;4995000;28;20117;-79
2023/11/19 07:45:19;;;;;;;39.53;4.60;;;;;;;15.63;68.12;100842.22;4994951;28;20038;-79
2023/11/19 07:47:54;;;;;;;35.03;4.97;;;;;;;15.73;67.80;100841.28;4978029;28;20038;-79
2023/11/19 07:50:20;;;;;;;34.47;4.43;;;;;;;15.77;66.45;100842.13;4977219;28;20034;-79
2023/11/19 07:52:45;;;;;;;34.45;4.65;;;;;;;15.69;66.85;100839.53;4977182;28;20042;-79
2023/11/19 07:55:14;;;;;;;40.10;4.63;;;;;;;15.79;67.01;100841.22;4994091;28;20049;-78
2023/11/19 07:57:39;;;;;;;39.08;4.15;;;;;;;15.95;65.90;100839.31;4993994;28;20089;-77
2023/11/19 08:00:17;;;;;;;39.20;4.50;;;;;;;16.15;65.40;100842.66;4994607;28;20447;-77
2023/11/19 08:02:51;;;;;;;40.05;4.63;;;;;;;15.78;66.18;100857.00;4994672;28;20483;-78
2023/11/19 08:05:16;;;;;;;;;;;;;;;15.83;65.71;100860.47;5000538;28;20039;-76
2023/11/19 08:07:42;;;;;;;30.87;4.60;;;;;;;15.93;65.81;100853.34;5006819;28;19961;-79
2023/11/19 08:10:09;;;;;;;32.70;4.55;;;;;;;16.05;64.62;100854.13;5001121;28;20313;-77
2023/11/19 08:12:44;;;;;;;35.38;4.00;;;;;;;15.69;66.02;100857.06;5009108;28;20030;-78
2023/11/19 08:15:18;;;;;;;32.75;4.40;;;;;;;16.19;64.38;100856.63;4982141;28;20042;-79
2023/11/19 08:17:51;;;;;;;35.70;4.50;;;;;;;16.24;64.36;100857.44;4998547;28;20721;-79
2023/11/19 08:20:16;;;;;;;33.78;4.22;;;;;;;15.95;65.82;100854.22;5002097;28;20061;-78
2023/11/19 08:22:44;;;;;;;37.53;4.35;;;;;;;15.83;66.36;100858.72;5006263;28;20030;-78
2023/11/19 08:25:16;;;;;;;35.70;4.65;;;;;;;15.88;66.28;100871.81;5010531;28;20042;-80
2023/11/19 08:27:54;;;;;;;38.50;4.68;;;;;;;15.85;66.76;100870.97;4977494;28;20054;-79
2023/11/19 08:30:20;;;;;;;34.47;4.95;;;;;;;16.19;65.09;100861.88;4994787;28;20125;-79
2023/11/19 08:32:45;;;;;;;39.03;4.47;;;;;;;16.20;65.24;100853.13;4994150;28;20120;-79
2023/11/19 08:35:13;;;;;;;35.15;4.57;;;;;;;16.34;64.46;100848.59;4976091;28;20039;-79
2023/11/19 08:37:39;;;;;;;37.35;5.35;;;;;;;16.53;63.79;100842.22;4996406;28;20042;-80
2023/11/19 08:40:19;;;;;;;32.03;4.50;;;;;;;16.53;63.91;100850.09;4978782;28;20046;-78
2023/11/19 08:42:45;;;;;;;35.42;4.45;;;;;;;16.55;63.96;100852.72;4999361;28;20046;-80
2023/11/19 08:45:10;;;;;;;29.45;4.53;;;;;;;16.71;63.88;100869.28;4996132;28;20134;-78
2023/11/19 08:47:45;;;;;;;34.15;4.90;;;;;;;16.22;65.07;100854.81;5002856;28;20041;-78
2023/11/19 08:50:19;;;;;;;;;;;;;;;16.31;64.46;100859.13;4985047;28;20038;-78
2023/11/19 08:52:44;;;;;;;30.23;4.10;;;;;;;16.09;65.20;100849.72;5004569;28;19964;-78
2023/11/19 08:55:13;;;;;;;33.30;4.68;;;;;;;16.40;64.33;100845.03;5003675;28;20293;-77
2023/11/19 08:57:45;;;;;;;40.00;4.93;;;;;;;16.32;64.64;100846.84;5004244;28;20034;-79
2023/11/19 09:00:14;;;;;;;34.28;4.38;;;;;;;16.29;64.45;100850.38;4997946;28;20050;-78
2023/11/19 09:02:42;;;;;;;40.13;5.03;;;;;;;16.53;63.75;100844.84;4996730;28;20058;-78
2023/11/19 09:05:08;;;;;;;32.08;4.55;;;;;;;16.43;64.13;100844.97;5000455;28;20057;-79
2023/11/19 09:07:33;;;;;;;35.30;4.55;;;;;;;16.22;65.04;100840.81;5008010;28;20042;-80
2023/11/19 09:10:05;;;;;;;38.55;4.90;;;;;;;16.70;63.82;100864.88;4995924;28;20031;-79
2023/11/19 09:12:30;;;;;;;34.42;4.85;;;;;;;16.32;64.54;100858.25;4996924;28;20081;-78
2023/11/19 09:14:58;;;;;;;33.53;4.50;;;;;;;16.50;63.90;100850.16;4995688;28;20031;-80
2023/11/19 09:17:23;;;;;;;35.65;4.60;;;;;;;16.07;63.60;100856.75;4975167;28;20034;-79
2023/11/19 09:19:49;;;;;;;42.90;5.18;;;;;;;16.25;64.71;100851.31;4998195;28;20381;-78
2023/11/19 09:22:14;;;;;;;38.08;4.40;;;;;;;16.18;64.49;100850.50;4994605;28;20519;-79
2023/11/19 09:24:40;;;;;;;32.17;3.92;;;;;;;16.88;62.60;100843.59;4994215;28;20385;-79
2023/11/19 09:27:05;;;;;;;37.65;4.25;;;;;;;16.74;62.40;100846.41;4994115;28;20101;-79
2023/11/19 09:29:33;;;;;;;34.40;4.53;;;;;;;16.74;62.03;100851.66;4995153;28;20034;-79
2023/11/19 09:31:59;;;;;;;32.97;4.40;;;;;;;16.79;62.01;100855.09;4994008;28;20038;-78
2023/11/19 09:34:25;;;;;;;34.20;4.80;;;;;;;16.75;61.85;100845.50;4975748;28;20033;-78
2023/11/19 09:36:56;;;;;;;28.98;4.20;;;;;;;17.48;60.58;100836.59;4993706;28;20038;-78
2023/11/19 09:39:21;;;;;;;28.27;4.53;;;;;;;16.96;61.09;100842.59;4993093;28;20061;-78
2023/11/19 09:41:47;;;;;;;40.13;4.90;;;;;;;17.69;59.94;100833.63;4975683;28;20030;-78
2023/11/19 09:44:14;;;;;;;33.50;4.07;;;;;;;16.96;61.09;100818.00;4973264;28;20030;-78
2023/11/19 09:46:41;;;;;;;31.27;3.97;;;;;;;17.12;61.71;100839.75;4974021;28;20038;-77
2023/11/19 09:49:13;;;;;;;28.65;4.28;;;;;;;16.95;62.67;100840.88;4990825;28;20045;-80
2023/11/19 09:51:38;;;;;;;32.15;4.20;;;;;;;16.92;63.27;100847.94;4991791;28;20120;-78
2023/11/19 09:54:04;;;;;;;28.55;4.30;;;;;;;16.69;62.74;100856.13;4990306;28;20126;-79
2023/11/19 09:56:30;;;;;;;30.27;4.53;;;;;;;16.92;62.56;100853.19;4994037;28;20046;-78
2023/11/19 09:58:56;;;;;;;34.08;4.35;;;;;;;17.02;62.06;100863.56;4995143;28;20038;-77
2023/11/19 10:01:21;;;;;;;26.33;4.82;;;;;;;16.90;61.68;100857.59;4991643;28;20088;-80
2023/11/19 10:03:53;;;;;;;29.25;4.07;;;;;;;17.14;60.56;100849.38;4989776;28;20121;-79
2023/11/19 10:06:19;;;;;;;31.30;3.80;;;;;;;16.74;60.21;100854.28;4972962;28;20089;-79
2023/11/19 10:08:44;;;;;;;29.65;4.00;;;;;;;16.57;60.99;100853.59;4974148;28;20510;-78
2023/11/19 10:11:12;;;;;;;26.67;3.72;;;;;;;16.82;60.19;100854.22;4991123;28;20534;-78
2023/11/19 10:13:38;;;;;;;31.67;3.50;;;;;;;16.91;59.83;100851.44;4991601;28;20057;-79
2023/11/19 10:16:08;;;;;;;29.67;4.20;;;;;;;16.88;59.46;100859.41;4991697;28;20047;-79
2023/11/19 10:18:37;;;;;;;29.25;3.80;;;;;;;16.59;60.15;100851.78;4991286;28;20041;-79
2023/11/19 10:21:03;;;;;;;33.10;5.72;;;;;;;16.70;59.78;100844.69;4991989;28;20046;-79
2023/11/19 10:23:47;;;;;;;25.98;4.05;;;;;;;17.05;59.27;100846.88;4990448;28;20046;-79
2023/11/19 10:26:13;;;;;;;32.90;4.30;;;;;;;16.89;60.31;100843.59;4990535;28;20062;-77
2023/11/19 10:28:46;;;;;;;34.58;3.92;;;;;;;16.76;60.75;100844.63;4990662;28;20113;-77
2023/11/19 10:31:20;;;;;;;32.45;4.15;;;;;;;16.81;59.65;100837.53;4993872;28;20137;-78
2023/11/19 10:33:46;;;;;;;27.77;4.00;;;;;;;16.73;60.60;100834.13;4994766;28;20079;-79
2023/11/19 10:36:12;;;;;;;33.33;3.95;;;;;;;16.68;60.50;100835.06;4994410;28;20042;-78
2023/11/19 10:38:52;;;;;;;34.50;4.35;;;;;;;16.95;59.99;100829.47;4977160;28;20092;-78
2023/11/19 10:41:30;;;;;;;27.35;3.78;;;;;;;16.80;60.21;100830.53;4993819;28;20041;-78
2023/11/19 10:43:57;;;;;;;27.63;4.00;;;;;;;17.41;58.33;100832.28;4993597;28;20039;-78
2023/11/19 10:46:23;;;;;;;28.10;4.40;;;;;;;17.28;58.62;100822.84;4993887;28;20184;-77
2023/11/19 10:48:51;;;;;;;27.30;3.95;;;;;;;17.27;58.89;100842.16;4994084;28;20498;-77
2023/11/19 10:51:23;;;;;;;27.88;4.30;;;;;;;17.00;58.63;100838.16;4994253;28;20064;-78
2023/11/19 10:53:55;;;;;;;26.30;3.13;;;;;;;17.34;57.80;100826.25;4994281;28;20030;-77
2023/11/19 10:56:25;;;;;;;23.75;3.40;;;;;;;17.03;57.63;100839.00;4975835;28;20054;-78
2023/11/19 10:58:52;;;;;;;22.92;4.20;;;;;;;17.24;57.35;100831.69;4993786;28;20454;-77
2023/11/19 11:01:33;;;;;;;24.60;3.72;;;;;;;17.05;57.76;100833.72;4993754;28;20038;-79
2023/11/19 11:04:00;;;;;;;27.02;3.63;;;;;;;17.43;56.65;100835.78;4993607;28;20443;-79
2023/11/19 11:06:26;;;;;;;25.20;3.85;;;;;;;17.90;55.97;100844.72;4994003;28;20117;-78
2023/11/19 11:08:53;;;;;;;24.48;3.70;;;;;;;17.74;55.48;100839.72;4994106;28;20042;-79
2023/11/19 11:11:21;;;;;;;27.65;3.92;;;;;;;17.56;56.38;100834.72;4975843;28;20612;-79
2023/11/19 11:13:50;;;;;;;28.10;4.10;;;;;;;17.87;55.49;100848.28;4993766;28;20054;-78
2023/11/19 11:16:19;;;;;;;26.90;4.15;;;;;;;17.53;57.55;100836.50;4992215;28;20152;-78
2023/11/19 11:18:49;;;;;;;32.00;4.53;;;;;;;17.72;57.87;100832.72;4976057;28;20062;-78
2023/11/19 11:21:20;;;;;;;26.52;4.15;;;;;;;17.65;58.05;100838.97;4992886;28;20042;-79